createdAt,value
2019-02-16T00:00:38.757Z,33.95
2019-02-16T00:03:07.256Z,28.40
2019-02-16T00:05:35.737Z,25.77
2019-02-16T00:08:04.337Z,23.22
2019-02-16T00:10:32.858Z,22.07
2019-02-16T00:13:01.320Z,25.17
2019-02-16T00:15:29.888Z,26.23
2019-02-16T00:17:58.318Z,24.40
2019-02-16T00:20:26.885Z,22.58
2019-02-16T00:22:55.356Z,21.57
2019-02-16T00:25:23.864Z,24.00
2019-02-16T00:27:52.350Z,30.65
2019-02-16T00:30:20.920Z,32.25
2019-02-16T00:32:50.007Z,33.05
2019-02-16T00:35:18.506Z,32.88
2019-02-16T00:37:47.015Z,30.35
2019-02-16T00:40:15.414Z,27.80
2019-02-16T00:42:43.934Z,25.25
2019-02-16T00:45:12.336Z,25.82
2019-02-16T00:47:40.841Z,29.27
2019-02-16T00:50:09.388Z,33.63
2019-02-16T00:52:37.857Z,30.65
2019-02-16T00:55:06.799Z,29.85
2019-02-16T00:57:35.276Z,31.48
2019-02-16T01:00:04.724Z,33.10
2019-02-16T01:02:33.160Z,32.63
2019-02-16T01:05:01.712Z,31.45
2019-02-16T01:07:30.212Z,33.53
2019-02-16T01:09:58.713Z,33.08
2019-02-16T01:12:27.260Z,31.80
2019-02-16T01:14:55.771Z,30.72
2019-02-16T01:17:24.320Z,30.40
2019-02-16T01:19:52.867Z,30.02
2019-02-16T01:22:21.265Z,34.33
2019-02-16T01:24:50.804Z,33.90
2019-02-16T01:27:19.203Z,35.33
2019-02-16T01:29:47.702Z,38.17
2019-02-16T01:32:16.342Z,40.92
2019-02-16T01:34:45.794Z,43.00
2019-02-16T01:37:14.261Z,43.98
2019-02-16T01:39:42.763Z,46.65
2019-02-16T01:42:11.385Z,41.28
2019-02-16T01:44:39.890Z,45.12
2019-02-16T01:47:08.460Z,42.75
2019-02-16T01:49:49.691Z,39.45
2019-02-16T01:52:18.164Z,39.65
2019-02-16T01:54:46.703Z,40.85
2019-02-16T01:57:15.219Z,41.33
2019-02-16T01:59:43.683Z,41.15
2019-02-16T02:02:12.193Z,38.50
2019-02-16T02:04:40.767Z,36.63
2019-02-16T02:07:09.237Z,37.90
2019-02-16T02:09:37.774Z,39.13
2019-02-16T02:12:06.251Z,35.73
2019-02-16T02:14:34.715Z,35.52
2019-02-16T02:17:03.240Z,36.48
2019-02-16T02:19:31.670Z,32.85
2019-02-16T02:22:00.228Z,29.72
2019-02-16T02:24:28.808Z,34.70
2019-02-16T02:26:57.224Z,38.50
2019-02-16T02:29:25.804Z,41.55
2019-02-16T02:31:54.300Z,39.78
2019-02-16T02:34:22.867Z,42.45
2019-02-16T02:36:51.416Z,42.48
2019-02-16T02:39:19.889Z,42.27
2019-02-16T02:41:48.282Z,43.98
2019-02-16T02:44:16.903Z,41.50
2019-02-16T02:46:45.431Z,38.23
2019-02-16T02:49:13.895Z,37.25
2019-02-16T02:51:51.667Z,34.70
2019-02-16T02:54:12.525Z,39.83
2019-02-16T02:56:41.024Z,39.58
2019-02-16T02:59:09.563Z,40.17
2019-02-16T03:01:38.037Z,40.85
2019-02-16T03:04:06.537Z,38.70
2019-02-16T03:06:35.015Z,40.28
2019-02-16T03:09:04.947Z,40.63
2019-02-16T03:11:33.431Z,40.33
2019-02-16T03:14:01.932Z,40.65
2019-02-16T03:16:30.339Z,43.48
2019-02-16T03:18:58.820Z,42.03
2019-02-16T03:21:27.331Z,44.20
2019-02-16T03:23:55.887Z,40.95
2019-02-16T03:26:39.693Z,43.00
2019-02-16T03:29:17.165Z,43.90
2019-02-16T03:31:58.999Z,45.83
2019-02-16T03:34:40.115Z,50.75
2019-02-16T03:37:53.732Z,53.98
2019-02-16T03:40:22.280Z,53.15
2019-02-16T03:42:50.812Z,53.10
2019-02-16T03:45:19.324Z,48.68
2019-02-16T03:47:47.981Z,47.00
2019-02-16T03:50:16.479Z,42.35
2019-02-16T03:52:44.955Z,42.70
2019-02-16T03:55:13.443Z,43.80
2019-02-16T03:58:01.247Z,41.30
2019-02-16T04:00:29.705Z,41.28
2019-02-16T04:02:58.180Z,39.60
2019-02-16T04:05:26.732Z,38.75
2019-02-16T04:07:55.179Z,37.28
2019-02-16T04:10:23.732Z,37.60
2019-02-16T04:12:52.240Z,35.68
2019-02-16T04:15:20.726Z,39.13
2019-02-16T04:17:49.176Z,35.75
2019-02-16T04:20:17.663Z,35.75
2019-02-16T04:22:46.037Z,35.70
2019-02-16T04:25:14.512Z,35.98
2019-02-16T04:27:43.111Z,32.25
2019-02-16T04:30:11.574Z,35.98
2019-02-16T04:32:40.050Z,36.75
2019-02-16T04:35:08.679Z,34.78
2019-02-16T04:37:37.185Z,36.03
2019-02-16T04:40:05.874Z,37.73
2019-02-16T04:42:34.499Z,37.50
2019-02-16T04:45:03.317Z,37.35
2019-02-16T04:47:31.779Z,35.78
2019-02-16T04:50:00.345Z,36.40
2019-02-16T04:52:34.876Z,35.60
2019-02-16T04:54:58.963Z,31.07
2019-02-16T04:57:27.602Z,30.40
2019-02-16T04:59:56.006Z,31.10
2019-02-16T05:02:24.509Z,32.75
2019-02-16T05:04:53.085Z,33.92
2019-02-16T05:07:21.534Z,31.30
2019-02-16T05:09:50.007Z,27.10
2019-02-16T05:12:18.423Z,26.30
2019-02-16T05:14:47.139Z,30.25
2019-02-16T05:17:15.757Z,24.25
2019-02-16T05:19:44.179Z,25.55
2019-02-16T05:22:12.788Z,23.98
2019-02-16T05:24:42.352Z,22.90
2019-02-16T05:27:10.830Z,21.65
2019-02-16T05:29:39.375Z,23.98
2019-02-16T05:32:07.908Z,22.62
2019-02-16T05:34:36.472Z,23.98
2019-02-16T05:37:05.001Z,26.50
2019-02-16T05:39:33.509Z,27.98
2019-02-16T05:42:01.934Z,24.10
2019-02-16T05:44:30.508Z,24.77
2019-02-16T05:46:58.995Z,23.70
2019-02-16T05:49:27.459Z,22.02
2019-02-16T05:51:55.988Z,24.40
2019-02-16T05:54:24.392Z,21.95
2019-02-16T05:56:52.802Z,22.62
2019-02-16T05:59:21.376Z,22.50
2019-02-16T06:01:54.033Z,21.55
2019-02-16T06:04:19.984Z,20.40
2019-02-16T06:06:48.467Z,22.65
2019-02-16T06:09:16.872Z,21.10
2019-02-16T06:11:45.407Z,20.52
2019-02-16T06:14:13.894Z,19.20
2019-02-16T06:16:42.337Z,18.45
2019-02-16T06:19:10.859Z,20.65
2019-02-16T06:21:39.247Z,20.82
2019-02-16T06:24:07.753Z,20.72
2019-02-16T06:26:36.205Z,17.27
2019-02-16T06:29:04.657Z,15.25
2019-02-16T06:31:33.160Z,14.63
2019-02-16T06:34:01.649Z,15.15
2019-02-16T06:36:31.707Z,14.85
2019-02-16T06:39:00.199Z,14.28
2019-02-16T06:41:28.943Z,17.75
2019-02-16T06:43:57.444Z,15.65
2019-02-16T06:46:25.836Z,15.08
2019-02-16T06:48:54.349Z,15.05
2019-02-16T06:51:22.846Z,15.55
2019-02-16T06:53:51.295Z,17.15
2019-02-16T06:56:27.191Z,17.45
2019-02-16T06:58:55.748Z,17.80
2019-02-16T07:01:24.283Z,25.88
2019-02-16T07:03:52.676Z,28.80
2019-02-16T07:06:21.208Z,32.08
2019-02-16T07:08:49.733Z,31.70
2019-02-16T07:11:18.245Z,29.60
2019-02-16T07:13:46.735Z,36.58
2019-02-16T07:16:25.762Z,39.38
2019-02-16T07:19:01.534Z,42.65
2019-02-16T07:21:30.200Z,49.70
2019-02-16T07:23:58.582Z,47.15
2019-02-16T07:26:26.998Z,43.78
2019-02-16T07:28:55.515Z,48.20
2019-02-16T07:31:24.021Z,48.10
2019-02-16T07:33:52.456Z,51.65
2019-02-16T07:36:22.194Z,56.30
2019-02-16T07:38:50.948Z,56.60
2019-02-16T07:41:19.360Z,52.67
2019-02-16T07:43:49.437Z,56.40
2019-02-16T07:46:22.339Z,55.90
2019-02-16T07:48:52.413Z,55.17
2019-02-16T07:51:22.477Z,56.20
2019-02-16T07:54:01.784Z,52.60
2019-02-16T07:56:31.851Z,57.75
2019-02-16T07:59:01.988Z,55.70
2019-02-16T08:01:35.252Z,52.38
2019-02-16T08:04:08.035Z,49.08
2019-02-16T08:06:38.087Z,52.38
2019-02-16T08:09:08.128Z,47.30
2019-02-16T08:11:38.437Z,52.58
2019-02-16T08:14:14.347Z,50.85
2019-02-16T08:16:59.557Z,49.25
2019-02-16T08:19:29.594Z,58.63
2019-02-16T08:21:59.686Z,51.18
2019-02-16T08:24:35.627Z,57.53
2019-02-16T08:27:05.660Z,53.28
2019-02-16T08:30:01.479Z,56.98
2019-02-16T08:32:55.842Z,55.45
2019-02-16T08:35:28.616Z,59.95
2019-02-16T08:38:15.379Z,61.35
2019-02-16T08:40:57.329Z,58.95
2019-02-16T08:43:44.030Z,58.05
2019-02-16T08:46:30.625Z,54.35
2019-02-16T08:49:19.021Z,54.85
2019-02-16T08:51:58.424Z,58.20
2019-02-16T08:54:46.746Z,64.17
2019-02-16T08:57:26.232Z,59.53
2019-02-16T08:59:56.294Z,64.32
2019-02-16T09:02:38.591Z,79.22
2019-02-16T09:05:20.420Z,74.07
2019-02-16T09:07:56.163Z,67.50
2019-02-16T09:10:38.474Z,69.67
2019-02-16T09:13:14.402Z,65.75
2019-02-16T09:15:44.444Z,66.45
2019-02-16T09:18:36.563Z,61.77
2019-02-16T09:21:14.810Z,63.95
2019-02-16T09:24:02.086Z,55.67
2019-02-16T09:26:40.888Z,50.95
2019-02-16T09:29:13.567Z,51.70
2019-02-16T09:31:46.219Z,54.60
2019-02-16T09:34:25.289Z,61.33
2019-02-16T09:37:10.624Z,63.05
2019-02-16T09:39:40.851Z,63.00
2019-02-16T09:42:23.043Z,58.28
2019-02-16T09:45:00.735Z,54.88
2019-02-16T09:47:36.653Z,56.70
2019-02-16T09:50:08.148Z,62.80
2019-02-16T09:52:38.219Z,61.42
2019-02-16T09:55:08.872Z,63.35
2019-02-16T09:57:51.399Z,62.25
2019-02-16T10:00:38.135Z,71.75
2019-02-16T10:03:17.571Z,62.53
2019-02-16T10:05:53.280Z,66.65
2019-02-16T10:08:23.353Z,72.53
2019-02-16T10:11:09.963Z,70.57
2019-02-16T10:13:42.823Z,71.42
2019-02-16T10:16:25.040Z,78.52
2019-02-16T10:18:55.156Z,74.70
2019-02-16T10:21:25.240Z,80.25
2019-02-16T10:24:04.420Z,71.62
2019-02-16T10:26:34.551Z,75.00
2019-02-16T10:29:07.392Z,74.82
2019-02-16T10:31:37.541Z,78.10
2019-02-16T10:34:16.881Z,77.45
2019-02-16T10:37:03.384Z,72.72
2019-02-16T10:39:33.496Z,81.22
2019-02-16T10:42:03.544Z,78.25
2019-02-16T10:44:48.884Z,74.82
2019-02-16T10:50:27.228Z,69.72
2019-02-16T10:52:59.986Z,69.27
2019-02-16T10:55:46.966Z,69.03
2019-02-16T10:58:17.036Z,76.02
2019-02-16T11:01:02.547Z,74.17
2019-02-16T11:03:51.035Z,79.37
2019-02-16T11:06:23.890Z,76.47
2019-02-16T11:09:10.274Z,78.72
2019-02-16T11:14:27.647Z,77.05
2019-02-16T11:17:03.457Z,75.85
2019-02-16T11:19:48.941Z,78.60
2019-02-16T11:22:22.128Z,75.70
2019-02-16T11:24:58.145Z,81.08
2019-02-16T11:27:44.356Z,76.92
2019-02-16T11:30:32.652Z,75.87
2019-02-16T11:33:02.733Z,74.15
2019-02-16T11:35:35.847Z,73.05
2019-02-16T11:38:05.981Z,75.28
2019-02-16T11:40:41.946Z,76.55
2019-02-16T11:43:18.071Z,71.10
2019-02-16T11:45:50.915Z,82.82
2019-02-16T11:48:30.119Z,76.07
2019-02-16T11:51:03.653Z,72.72
2019-02-16T11:53:36.695Z,68.17
2019-02-16T11:56:09.517Z,70.60
2019-02-16T11:58:45.711Z,71.87
2019-02-16T12:01:24.902Z,70.17
2019-02-16T12:04:07.117Z,72.05
2019-02-16T12:06:37.275Z,64.75
2019-02-16T12:09:24.235Z,65.17
2019-02-16T12:12:00.191Z,65.28
2019-02-16T12:14:30.235Z,64.92
2019-02-16T12:17:03.223Z,69.10
2019-02-16T12:19:51.418Z,67.35
2019-02-16T12:22:21.551Z,65.75
2019-02-16T12:25:06.694Z,71.80
2019-02-16T12:27:53.324Z,62.85
2019-02-16T12:30:23.363Z,60.85
2019-02-16T12:32:56.743Z,66.00
2019-02-16T12:35:26.864Z,64.27
2019-02-16T12:38:02.728Z,62.17
2019-02-16T12:40:41.632Z,64.67
2019-02-16T12:43:14.849Z,64.03
2019-02-16T12:45:50.933Z,63.23
2019-02-16T12:48:19.714Z,64.17
2019-02-16T12:50:52.910Z,67.20
2019-02-16T12:53:23.084Z,67.87
2019-02-16T12:55:56.184Z,69.15
2019-02-16T12:58:35.167Z,61.75
2019-02-16T13:01:11.080Z,62.13
2019-02-16T13:03:41.130Z,56.53
2019-02-16T13:06:11.177Z,61.10
2019-02-16T13:08:41.388Z,57.20
2019-02-16T13:11:11.512Z,57.93
2019-02-16T13:13:53.904Z,56.68
2019-02-16T13:16:27.008Z,55.45
2019-02-16T13:19:00.312Z,54.53
2019-02-16T13:21:30.388Z,48.40
2019-02-16T13:24:06.273Z,48.80
2019-02-16T13:26:51.579Z,50.48
2019-02-16T13:29:27.654Z,54.30
2019-02-16T13:31:57.801Z,50.70
2019-02-16T13:34:30.889Z,49.50
2019-02-16T13:37:03.624Z,48.38
2019-02-16T13:39:36.626Z,55.23
2019-02-16T13:42:06.704Z,52.40
2019-02-16T13:44:45.591Z,50.30
2019-02-16T13:47:34.121Z,54.20
2019-02-16T13:50:04.170Z,56.48
2019-02-16T13:52:37.226Z,52.17
2019-02-16T13:55:13.351Z,51.95
2019-02-16T13:57:46.345Z,47.38
2019-02-16T14:00:16.475Z,47.80
2019-02-16T14:02:58.691Z,48.13
2019-02-16T14:05:28.840Z,48.23
2019-02-16T14:08:14.033Z,50.25
2019-02-16T14:10:50.023Z,49.67
2019-02-16T14:13:20.168Z,49.65
2019-02-16T14:15:53.181Z,47.10
2019-02-16T14:18:21.677Z,48.85
2019-02-16T14:20:50.190Z,39.42
2019-02-16T14:23:18.747Z,45.35
2019-02-16T14:25:47.216Z,49.67
2019-02-16T14:28:15.626Z,50.45
2019-02-16T14:30:44.148Z,44.65
2019-02-16T14:33:12.638Z,46.00
2019-02-16T14:35:41.116Z,47.78
2019-02-16T14:38:11.231Z,46.13
2019-02-16T14:40:39.722Z,47.73
2019-02-16T14:43:08.169Z,43.73
2019-02-16T14:45:38.316Z,43.98
2019-02-16T14:48:06.791Z,46.08
2019-02-16T14:50:35.300Z,48.15
2019-02-16T14:53:03.953Z,50.70
2019-02-16T14:55:32.451Z,51.15
2019-02-16T14:58:01.893Z,48.48
2019-02-16T15:00:30.355Z,44.85
2019-02-16T15:02:58.850Z,52.00
2019-02-16T15:05:27.423Z,41.70
2019-02-16T15:07:55.976Z,44.60
2019-02-16T15:10:24.417Z,44.45
2019-02-16T15:12:52.883Z,44.48
2019-02-16T15:15:21.512Z,40.40
2019-02-16T15:17:50.024Z,45.35
2019-02-16T15:20:18.536Z,48.95
2019-02-16T15:22:47.049Z,48.65
2019-02-16T15:25:16.135Z,50.50
2019-02-16T15:27:44.627Z,42.20
2019-02-16T15:30:20.857Z,37.90
2019-02-16T15:32:49.407Z,37.95
2019-02-16T15:35:17.889Z,44.55
2019-02-16T15:37:46.439Z,43.38
2019-02-16T15:40:17.438Z,39.03
2019-02-16T15:42:51.935Z,32.40
2019-02-16T15:45:20.839Z,33.50
2019-02-16T15:47:49.501Z,40.23
2019-02-16T15:50:18.023Z,40.05
2019-02-16T15:52:46.515Z,42.13
2019-02-16T15:55:15.019Z,40.75
2019-02-16T15:57:43.572Z,44.50
2019-02-16T16:00:21.971Z,38.67
2019-02-16T16:02:51.481Z,32.70
2019-02-16T16:05:19.895Z,31.50
2019-02-16T16:07:50.075Z,32.73
2019-02-16T16:10:23.382Z,30.35
2019-02-16T16:13:05.784Z,28.77
2019-02-16T16:15:41.764Z,37.55
2019-02-16T16:18:16.587Z,39.90
2019-02-16T16:20:46.632Z,34.63
2019-02-16T16:23:33.037Z,43.25
2019-02-16T16:26:19.018Z,43.75
2019-02-16T16:28:46.792Z,34.35
2019-02-16T16:31:25.696Z,28.52
2019-02-16T16:33:58.806Z,24.05
2019-02-16T16:36:43.996Z,20.88
2019-02-16T16:39:14.134Z,19.65
2019-02-16T16:42:02.316Z,18.07
2019-02-16T16:44:36.816Z,17.87
2019-02-16T16:47:23.443Z,15.65
2019-02-16T16:50:18.829Z,14.00
2019-02-16T16:52:52.000Z,13.15
2019-02-16T16:55:28.352Z,12.53
2019-02-16T16:57:58.473Z,14.58
2019-02-16T17:00:44.709Z,16.60
2019-02-16T17:03:29.775Z,19.48
2019-02-16T17:06:11.914Z,22.15
2019-02-16T17:08:45.794Z,22.55
2019-02-16T17:11:15.901Z,25.88
2019-02-16T17:13:45.905Z,25.05
2019-02-16T17:16:31.430Z,26.70
2019-02-16T17:19:04.521Z,26.73
2019-02-16T17:21:40.651Z,24.05
2019-02-16T17:24:31.090Z,21.50
2019-02-16T17:27:01.192Z,22.07
2019-02-16T17:29:34.103Z,19.42
2019-02-16T17:32:22.470Z,25.72
2019-02-16T17:34:52.515Z,23.85
2019-02-16T17:37:31.283Z,22.17
2019-02-16T17:40:19.327Z,21.20
2019-02-16T17:42:52.032Z,27.62
2019-02-16T17:45:25.144Z,26.20
2019-02-16T17:47:57.797Z,26.60
2019-02-16T17:50:33.694Z,23.90
2019-02-16T17:53:09.411Z,23.95
2019-02-16T17:55:51.632Z,22.20
2019-02-16T17:58:27.808Z,20.95
2019-02-16T18:01:03.871Z,21.25
2019-02-16T18:03:33.900Z,19.95
2019-02-16T18:06:03.966Z,19.05
2019-02-16T18:08:38.183Z,17.60
2019-02-16T18:11:20.253Z,17.52
2019-02-16T18:13:53.193Z,22.95
2019-02-16T18:16:26.131Z,27.37
2019-02-16T18:19:12.754Z,28.30
2019-02-16T18:21:42.836Z,31.30
2019-02-16T18:24:25.179Z,36.10
2019-02-16T18:26:56.770Z,34.80
2019-02-16T18:29:29.857Z,36.88
2019-02-16T18:31:59.971Z,35.35
2019-02-16T18:34:32.829Z,34.48
2019-02-16T18:37:02.943Z,38.42
2019-02-16T18:39:32.991Z,42.15
2019-02-16T18:42:12.495Z,44.42
2019-02-16T18:44:44.964Z,49.00
2019-02-16T18:47:31.351Z,54.95
2019-02-16T18:52:42.595Z,58.00
2019-02-16T18:55:15.278Z,58.25
2019-02-16T18:57:45.370Z,64.07
2019-02-16T19:00:21.454Z,60.00
2019-02-16T19:03:10.379Z,57.00
2019-02-16T19:05:52.593Z,55.58
2019-02-16T19:08:22.734Z,54.60
2019-02-16T19:11:08.877Z,57.58
2019-02-16T19:13:54.110Z,54.40
2019-02-16T19:16:30.127Z,52.40
2019-02-16T19:19:01.896Z,54.15
2019-02-16T19:21:48.566Z,55.12
2019-02-16T19:24:27.695Z,54.77
2019-02-16T19:27:03.911Z,54.23
2019-02-16T19:29:35.420Z,51.75
2019-02-16T19:32:09.781Z,52.75
2019-02-16T19:34:46.369Z,66.30
2019-02-16T19:39:49.562Z,67.80
2019-02-16T19:42:20.058Z,68.87
2019-02-16T19:45:06.805Z,68.83
2019-02-16T19:47:40.392Z,75.52
2019-02-16T19:50:20.492Z,72.80
2019-02-16T19:52:52.591Z,69.55
2019-02-16T19:55:40.817Z,70.30
2019-02-16T19:58:15.032Z,64.80
2019-02-16T20:00:58.148Z,67.03
2019-02-16T20:03:32.281Z,66.20
2019-02-16T20:06:15.273Z,62.65
2019-02-16T20:08:52.781Z,63.80
2019-02-16T20:11:41.832Z,63.45
2019-02-16T20:14:16.031Z,61.75
2019-02-16T20:16:47.209Z,60.23
2019-02-16T20:19:28.458Z,53.60
2019-02-16T20:22:17.220Z,50.88
2019-02-16T20:25:04.738Z,54.08
2019-02-16T20:27:53.987Z,58.28
2019-02-16T20:30:27.521Z,58.63
2019-02-16T20:33:10.207Z,61.48
2019-02-16T20:35:56.105Z,61.90
2019-02-16T20:38:26.563Z,60.50
2019-02-16T20:40:59.864Z,58.55
2019-02-16T20:43:40.748Z,58.48
2019-02-16T20:46:20.450Z,54.10
2019-02-16T20:48:50.909Z,58.00
2019-02-16T20:51:27.194Z,57.58
2019-02-16T20:54:13.757Z,68.65
2019-02-16T20:56:47.372Z,68.70
2019-02-16T20:59:36.228Z,67.75
2019-02-16T21:02:15.719Z,61.40
2019-02-16T21:04:52.193Z,63.92
2019-02-16T21:07:42.135Z,59.83
2019-02-16T21:10:12.857Z,58.15
2019-02-16T21:12:43.865Z,59.30
2019-02-16T21:15:15.105Z,51.63
2019-02-16T21:18:04.613Z,47.27
2019-02-16T21:20:41.892Z,41.75
2019-02-16T21:23:25.309Z,42.33
2019-02-16T21:25:59.522Z,38.42
2019-02-16T21:28:38.554Z,36.33
2019-02-16T21:31:13.893Z,38.50
2019-02-16T21:33:47.092Z,51.80
2019-02-16T21:36:19.414Z,56.73
2019-02-16T21:39:03.190Z,65.22
2019-02-16T21:41:31.616Z,63.83
2019-02-16T21:44:05.121Z,58.48
2019-02-16T21:46:38.459Z,60.38
2019-02-16T21:49:17.559Z,63.15
2019-02-16T21:51:53.616Z,59.10
2019-02-16T21:54:26.655Z,60.58
2019-02-16T21:57:02.857Z,53.05
2019-02-16T21:59:45.304Z,52.90
2019-02-16T22:02:24.631Z,55.17
2019-02-16T22:04:57.532Z,54.30
2019-02-16T22:07:36.664Z,55.43
2019-02-16T22:10:09.936Z,58.38
2019-02-16T22:12:42.802Z,62.30
2019-02-16T22:15:11.328Z,57.55
2019-02-16T22:17:39.829Z,58.85
2019-02-16T22:20:10.315Z,60.48
2019-02-16T22:22:38.945Z,53.38
2019-02-16T22:25:07.448Z,52.03
2019-02-16T22:27:35.964Z,50.67
2019-02-16T22:30:06.058Z,46.83
2019-02-16T22:32:34.553Z,51.73
2019-02-16T22:35:03.061Z,52.10
2019-02-16T22:37:31.557Z,49.55
2019-02-16T22:40:00.008Z,52.62
2019-02-16T22:42:28.513Z,51.48
2019-02-16T22:44:57.023Z,52.17
2019-02-16T22:47:25.604Z,50.17
2019-02-16T22:49:54.016Z,45.38
2019-02-16T22:52:22.496Z,47.53
2019-02-16T22:54:51.047Z,61.55
2019-02-16T22:57:19.491Z,66.12
2019-02-16T22:59:47.889Z,59.15
2019-02-16T23:02:16.377Z,55.60
2019-02-16T23:04:44.916Z,51.88
2019-02-16T23:07:13.384Z,49.35
2019-02-16T23:09:41.792Z,46.83
2019-02-16T23:12:10.256Z,47.73
2019-02-16T23:14:38.843Z,45.05
2019-02-16T23:17:07.294Z,50.55
2019-02-16T23:19:35.805Z,45.75
2019-02-16T23:22:04.372Z,42.78
2019-02-16T23:24:32.859Z,42.23
2019-02-16T23:27:01.372Z,43.52
2019-02-16T23:29:29.936Z,43.60
2019-02-16T23:31:58.419Z,47.23
2019-02-16T23:34:26.864Z,44.67
2019-02-16T23:36:55.332Z,43.73
2019-02-16T23:39:23.912Z,48.48
2019-02-16T23:41:52.401Z,51.23
2019-02-16T23:44:20.839Z,46.58
2019-02-16T23:46:51.514Z,48.13
2019-02-16T23:49:19.398Z,48.95
2019-02-16T23:51:47.793Z,47.53
2019-02-16T23:54:16.379Z,49.27
2019-02-16T23:56:44.832Z,48.45
2019-02-16T23:59:13.273Z,47.25
